Time,TemperatureF,DewpointF,PressureIn,WindDirection,WindDirectionDegrees,WindSpeedMPH,WindSpeedGustMPH,Humidity,HourlyPrecipIn,Conditions,Clouds,dailyrainin,SoftwareType,DateUTC
2013-02-17 00:02:00,28.7,18.0,30.25,NNW,338,0.0,0.0,65,0.00,,,0.00,weatherlink.com 1.10,2013-02-17 06:02:00,
2013-02-17 00:17:00,28.2,19.0,30.26,NNW,338,0.0,0.0,69,0.00,,,0.00,weatherlink.com 1.10,2013-02-17 06:17:00,
2013-02-17 00:32:00,27.8,19.0,30.26,NNW,338,0.0,0.0,69,0.00,,,0.00,weatherlink.com 1.10,2013-02-17 06:32:00,
2013-02-17 00:47:00,27.6,18.0,30.26,NNW,338,0.0,0.0,67,0.00,,,0.00,weatherlink.com 1.10,2013-02-17 06:47:00,
2013-02-17 01:02:00,26.9,19.0,30.26,NNW,338,0.0,0.0,71,0.00,,,0.00,weatherlink.com 1.10,2013-02-17 07:02:00,
2013-02-17 01:17:00,25.9,19.0,30.27,NNW,338,0.0,1.0,76,0.00,,,0.00,weatherlink.com 1.10,2013-02-17 07:17:00,
2013-02-17 01:32:00,26.6,18.0,30.27,NNW,338,0.0,0.0,70,0.00,,,0.00,weatherlink.com 1.10,2013-02-17 07:32:00,
2013-02-17 01:47:00,26.1,18.0,30.27,NNW,338,0.0,0.0,72,0.00,,,0.00,weatherlink.com 1.10,2013-02-17 07:47:00,
2013-02-17 02:02:00,25.9,19.0,30.27,NNW,338,0.0,0.0,74,0.00,,,0.00,weatherlink.com 1.10,2013-02-17 08:02:00,
2013-02-17 02:17:00,25.4,19.0,30.26,NNW,338,0.0,0.0,76,0.00,,,0.00,weatherlink.com 1.10,2013-02-17 08:17:00,
2013-02-17 02:32:00,25.2,18.0,30.26,NNW,338,0.0,1.0,74,0.00,,,0.00,weatherlink.com 1.10,2013-02-17 08:32:00,
2013-02-17 02:47:00,25.2,17.0,30.26,NNW,338,0.0,1.0,72,0.00,,,0.00,weatherlink.com 1.10,2013-02-17 08:47:00,
2013-02-17 03:02:00,24.6,17.0,30.26,NNW,338,1.0,1.0,74,0.00,,,0.00,weatherlink.com 1.10,2013-02-17 09:02:00,
2013-02-17 03:17:00,24.3,18.0,30.27,NNW,338,0.0,0.0,76,0.00,,,0.00,weatherlink.com 1.10,2013-02-17 09:17:00,
2013-02-17 03:32:00,24.1,18.0,30.28,NNW,338,0.0,1.0,77,0.00,,,0.00,weatherlink.com 1.10,2013-02-17 09:32:00,
2013-02-17 03:47:00,24.5,18.0,30.29,NNW,338,0.0,1.0,75,0.00,,,0.00,weatherlink.com 1.10,2013-02-17 09:47:00,
2013-02-17 04:02:00,25.4,17.0,30.29,NNW,330,0.0,2.0,70,0.00,,,0.00,weatherlink.com 1.10,2013-02-17 10:02:00,
2013-02-17 04:18:00,24.9,17.0,30.29,NNW,330,0.0,1.0,72,0.00,,,0.00,weatherlink.com 1.10,2013-02-17 10:18:00,
2013-02-17 04:33:00,23.6,18.0,30.29,NNW,330,0.0,0.0,79,0.00,,,0.00,weatherlink.com 1.10,2013-02-17 10:33:00,
2013-02-17 04:47:00,24.3,18.0,30.29,NNW,330,0.0,0.0,76,0.00,,,0.00,weatherlink.com 1.10,2013-02-17 10:47:00,
2013-02-17 05:02:00,25.0,16.0,30.30,NNW,330,0.0,0.0,69,0.00,,,0.00,weatherlink.com 1.10,2013-02-17 11:02:00,
2013-02-17 05:18:00,23.2,18.0,30.30,NNW,330,0.0,0.0,79,0.00,,,0.00,weatherlink.com 1.10,2013-02-17 11:18:00,
2013-02-17 05:32:00,22.4,17.0,30.31,NW,322,1.0,2.0,81,0.00,,,0.00,weatherlink.com 1.10,2013-02-17 11:32:00,
2013-02-17 05:47:00,24.8,17.0,30.31,NW,317,0.0,2.0,73,0.00,,,0.00,weatherlink.com 1.10,2013-02-17 11:47:00,
2013-02-17 06:02:00,24.2,18.0,30.32,NW,317,0.0,2.0,76,0.00,,,0.00,weatherlink.com 1.10,2013-02-17 12:02:00,
2013-02-17 06:17:00,23.8,18.0,30.32,NW,317,1.0,2.0,78,0.00,,,0.00,weatherlink.com 1.10,2013-02-17 12:17:00,
2013-02-17 06:32:00,23.0,18.0,30.32,NNW,334,0.0,2.0,80,0.00,,,0.00,weatherlink.com 1.10,2013-02-17 12:32:00,
2013-02-17 06:48:00,23.3,19.0,30.33,NW,324,1.0,2.0,83,0.00,,,0.00,weatherlink.com 1.10,2013-02-17 12:48:00,
2013-02-17 07:02:00,24.5,19.0,30.33,NW,324,0.0,1.0,81,0.00,,,0.00,weatherlink.com 1.10,2013-02-17 13:02:00,
2013-02-17 07:17:00,26.4,21.0,30.34,NW,324,0.0,0.0,79,0.00,,,0.00,weatherlink.com 1.10,2013-02-17 13:17:00,
2013-02-17 07:32:00,27.0,21.0,30.34,NW,324,0.0,1.0,79,0.00,,,0.00,weatherlink.com 1.10,2013-02-17 13:32:00,
2013-02-17 07:47:00,27.8,21.0,30.34,NW,324,0.0,1.0,77,0.00,,,0.00,weatherlink.com 1.10,2013-02-17 13:47:00,
2013-02-17 08:03:00,28.6,22.0,30.34,NW,324,0.0,1.0,75,0.00,,,0.00,weatherlink.com 1.10,2013-02-17 14:03:00,
2013-02-17 08:18:00,30.0,22.0,30.35,NW,324,1.0,2.0,72,0.00,,,0.00,weatherlink.com 1.10,2013-02-17 14:18:00,
2013-02-17 08:33:00,31.6,22.0,30.35,NW,322,0.0,3.0,68,0.00,,,0.00,weatherlink.com 1.10,2013-02-17 14:33:00,
2013-02-17 08:48:00,32.8,22.0,30.35,SSW,210,1.0,5.0,64,0.00,,,0.00,weatherlink.com 1.10,2013-02-17 14:48:00,
2013-02-17 09:03:00,34.5,21.0,30.36,SSE,156,1.0,5.0,57,0.00,,,0.00,weatherlink.com 1.10,2013-02-17 15:03:00,
2013-02-17 09:33:00,37.6,17.0,30.36,SSE,165,1.0,4.0,43,0.00,,,0.00,weatherlink.com 1.10,2013-02-17 15:33:00,
2013-02-17 09:48:00,40.3,15.0,30.36,WSW,237,0.0,3.0,36,0.00,,,0.00,weatherlink.com 1.10,2013-02-17 15:48:00,
2013-02-17 10:03:00,39.7,12.0,30.36,North,10,0.0,4.0,32,0.00,,,0.00,weatherlink.com 1.10,2013-02-17 16:03:00,
2013-02-17 10:18:00,41.3,9.0,30.36,SE,142,2.0,4.0,27,0.00,,,0.00,weatherlink.com 1.10,2013-02-17 16:18:00,
2013-02-17 10:33:00,41.9,11.0,30.36,NW,309,2.0,5.0,28,0.00,,,0.00,weatherlink.com 1.10,2013-02-17 16:33:00,
2013-02-17 10:48:00,42.9,12.0,30.36,SW,227,3.0,7.0,28,0.00,,,0.00,weatherlink.com 1.10,2013-02-17 16:48:00,
2013-02-17 11:03:00,43.2,12.0,30.35,SSW,210,1.0,9.0,28,0.00,,,0.00,weatherlink.com 1.10,2013-02-17 17:03:00,
2013-02-17 11:18:00,45.1,12.0,30.34,WNW,282,1.0,4.0,26,0.00,,,0.00,weatherlink.com 1.10,2013-02-17 17:18:00,
2013-02-17 11:33:00,44.4,11.0,30.33,SSE,149,4.0,5.0,26,0.00,,,0.00,weatherlink.com 1.10,2013-02-17 17:33:00,
2013-02-17 11:48:00,44.2,12.0,30.32,South,170,0.0,3.0,27,0.00,,,0.00,weatherlink.com 1.10,2013-02-17 17:48:00,
2013-02-17 12:03:00,45.0,12.0,30.32,South,186,1.0,7.0,26,0.00,,,0.00,weatherlink.com 1.10,2013-02-17 18:03:00,
2013-02-17 12:18:00,49.2,13.0,30.31,NNW,330,3.0,8.0,23,0.00,,,0.00,weatherlink.com 1.10,2013-02-17 18:18:00,
2013-02-17 12:48:00,49.2,12.0,30.30,WSW,239,2.0,10.0,22,0.00,,,0.00,weatherlink.com 1.10,2013-02-17 18:48:00,
2013-02-17 13:03:00,48.6,13.0,30.29,WSW,239,1.0,6.0,24,0.00,,,0.00,weatherlink.com 1.10,2013-02-17 19:03:00,
2013-02-17 13:19:00,49.3,13.0,30.29,West,278,0.0,8.0,23,0.00,,,0.00,weatherlink.com 1.10,2013-02-17 19:19:00,
2013-02-17 13:34:00,49.3,12.0,30.28,WNW,288,5.0,7.0,22,0.00,,,0.00,weatherlink.com 1.10,2013-02-17 19:34:00,
2013-02-17 13:48:00,50.0,11.0,30.28,West,266,4.0,7.0,21,0.00,,,0.00,weatherlink.com 1.10,2013-02-17 19:48:00,
2013-02-17 14:04:00,48.8,11.0,30.27,SSE,151,2.0,8.0,22,0.00,,,0.00,weatherlink.com 1.10,2013-02-17 20:04:00,
2013-02-17 14:19:00,49.7,14.0,30.27,North,349,2.0,7.0,24,0.00,,,0.00,weatherlink.com 1.10,2013-02-17 20:19:00,
2013-02-17 14:34:00,49.0,13.0,30.27,SW,230,4.0,10.0,24,0.00,,,0.00,weatherlink.com 1.10,2013-02-17 20:34:00,
2013-02-17 14:48:00,49.9,13.0,30.26,WSW,243,0.0,8.0,23,0.00,,,0.00,weatherlink.com 1.10,2013-02-17 20:48:00,
2013-02-17 15:04:00,50.6,18.0,30.26,WSW,241,1.0,5.0,28,0.00,,,0.00,weatherlink.com 1.10,2013-02-17 21:04:00,
2013-02-17 15:18:00,50.3,16.0,30.26,SW,226,2.0,7.0,25,0.00,,,0.00,weatherlink.com 1.10,2013-02-17 21:18:00,
2013-02-17 15:33:00,50.0,18.0,30.25,WNW,295,0.0,5.0,28,0.00,,,0.00,weatherlink.com 1.10,2013-02-17 21:33:00,
2013-02-17 15:48:00,49.9,14.0,30.25,WSW,256,3.0,13.0,24,0.00,,,0.00,weatherlink.com 1.10,2013-02-17 21:48:00,
2013-02-17 16:03:00,49.9,13.0,30.25,WNW,301,0.0,6.0,23,0.00,,,0.00,weatherlink.com 1.10,2013-02-17 22:03:00,
2013-02-17 16:18:00,49.2,14.0,30.25,WSW,239,1.0,7.0,24,0.00,,,0.00,weatherlink.com 1.10,2013-02-17 22:18:00,
2013-02-17 16:33:00,49.2,15.0,30.25,SW,234,1.0,6.0,25,0.00,,,0.00,weatherlink.com 1.10,2013-02-17 22:33:00,
2013-02-17 16:48:00,48.5,15.0,30.25,South,191,0.0,2.0,26,0.00,,,0.00,weatherlink.com 1.10,2013-02-17 22:48:00,
2013-02-17 17:03:00,47.6,14.0,30.25,WSW,243,3.0,4.0,26,0.00,,,0.00,weatherlink.com 1.10,2013-02-17 23:03:00,
2013-02-17 17:18:00,46.3,16.0,30.25,WSW,237,1.0,2.0,30,0.00,,,0.00,weatherlink.com 1.10,2013-02-17 23:18:00,
2013-02-17 17:34:00,45.1,17.0,30.25,WSW,237,0.0,0.0,32,0.00,,,0.00,weatherlink.com 1.10,2013-02-17 23:34:00,
2013-02-17 17:48:00,43.5,17.0,30.25,WSW,237,0.0,0.0,35,0.00,,,0.00,weatherlink.com 1.10,2013-02-17 23:48:00,
2013-02-17 18:04:00,43.0,18.0,30.25,WSW,237,0.0,0.0,36,0.00,,,0.00,weatherlink.com 1.10,2013-02-18 00:04:00,
2013-02-17 18:19:00,42.7,17.0,30.26,WSW,237,0.0,0.0,36,0.00,,,0.00,weatherlink.com 1.10,2013-02-18 00:19:00,
2013-02-17 18:36:00,42.3,16.0,30.26,WSW,237,1.0,2.0,35,0.00,,,0.00,weatherlink.com 1.10,2013-02-18 00:36:00,
2013-02-17 18:49:00,42.1,17.0,30.26,WSW,237,0.0,0.0,36,0.00,,,0.00,weatherlink.com 1.10,2013-02-18 00:49:00,
2013-02-17 19:04:00,40.6,19.0,30.27,WSW,237,0.0,0.0,42,0.00,,,0.00,weatherlink.com 1.10,2013-02-18 01:04:00,
2013-02-17 19:19:00,41.0,20.0,30.27,WSW,237,0.0,2.0,43,0.00,,,0.00,weatherlink.com 1.10,2013-02-18 01:19:00,
2013-02-17 19:34:00,39.7,20.0,30.27,WSW,237,0.0,2.0,46,0.00,,,0.00,weatherlink.com 1.10,2013-02-18 01:34:00,
2013-02-17 19:49:00,41.7,17.0,30.27,SW,236,1.0,4.0,37,0.00,,,0.00,weatherlink.com 1.10,2013-02-18 01:49:00,
2013-02-17 20:04:00,40.5,19.0,30.28,SW,234,0.0,2.0,42,0.00,,,0.00,weatherlink.com 1.10,2013-02-18 02:04:00,
2013-02-17 20:19:00,39.8,20.0,30.27,SW,234,0.0,1.0,45,0.00,,,0.00,weatherlink.com 1.10,2013-02-18 02:19:00,
2013-02-17 20:34:00,39.5,17.0,30.28,SW,234,0.0,1.0,41,0.00,,,0.00,weatherlink.com 1.10,2013-02-18 02:34:00,
2013-02-17 20:49:00,40.1,18.0,30.29,SW,234,0.0,2.0,41,0.00,,,0.00,weatherlink.com 1.10,2013-02-18 02:49:00,
2013-02-17 21:04:00,39.9,18.0,30.28,SW,234,0.0,0.0,42,0.00,,,0.00,weatherlink.com 1.10,2013-02-18 03:04:00,
2013-02-17 21:19:00,39.6,18.0,30.29,SW,234,0.0,2.0,42,0.00,,,0.00,weatherlink.com 1.10,2013-02-18 03:19:00,
2013-02-17 21:34:00,38.1,18.0,30.29,SW,234,0.0,0.0,45,0.00,,,0.00,weatherlink.com 1.10,2013-02-18 03:34:00,
2013-02-17 21:49:00,37.2,20.0,30.29,SW,234,0.0,0.0,50,0.00,,,0.00,weatherlink.com 1.10,2013-02-18 03:49:00,
2013-02-17 22:04:00,37.8,18.0,30.29,SW,234,0.0,0.0,44,0.00,,,0.00,weatherlink.com 1.10,2013-02-18 04:04:00,
2013-02-17 22:19:00,38.6,18.0,30.29,SW,234,0.0,0.0,43,0.00,,,0.00,weatherlink.com 1.10,2013-02-18 04:19:00,
2013-02-17 22:34:00,37.5,18.0,30.29,SW,234,0.0,0.0,46,0.00,,,0.00,weatherlink.com 1.10,2013-02-18 04:34:00,
2013-02-17 22:49:00,36.3,20.0,30.28,SW,234,0.0,0.0,53,0.00,,,0.00,weatherlink.com 1.10,2013-02-18 04:49:00,
2013-02-17 23:04:00,36.3,20.0,30.28,SW,234,0.0,0.0,51,0.00,,,0.00,weatherlink.com 1.10,2013-02-18 05:04:00,
2013-02-17 23:19:00,36.9,21.0,30.28,SW,234,0.0,1.0,53,0.00,,,0.00,weatherlink.com 1.10,2013-02-18 05:19:00,
2013-02-17 23:34:00,36.9,18.0,30.28,SW,234,0.0,1.0,47,0.00,,,0.00,weatherlink.com 1.10,2013-02-18 05:34:00,
2013-02-17 23:49:00,34.8,20.0,30.28,SW,234,0.0,0.0,55,0.00,,,0.00,weatherlink.com 1.10,2013-02-18 05:49:00,